Time;durP1;ratioP1;P1;durP2;ratioP2;P2;SDS_P1;SDS_P2;PMS_P1;PMS_P2;Temp;Humidity;BMP_temperature;BMP_pressure;BME280_temperature;BME280_humidity;BME280_pressure;Samples;Min_cycle;Max_cycle;Signal;HPM_P1;HPM_P2
2023/05/08 00:01:36;;;;;;;19.45;16.58;;;12.30;19.90;;;;;;5033622;28;20401;-64
2023/05/08 00:04:02;;;;;;;22.52;16.98;;;12.30;23.40;;;;;;5033063;28;20033;-64
2023/05/08 00:06:28;;;;;;;19.92;15.20;;;12.30;25.70;;;;;;5033570;28;20032;-64
2023/05/08 00:08:54;;;;;;;19.88;15.85;;;12.30;25.00;;;;;;5033001;28;20036;-64
2023/05/08 00:11:20;;;;;;;20.52;16.52;;;12.30;28.10;;;;;;5031564;28;20454;-64
2023/05/08 00:13:45;;;;;;;18.73;15.27;;;12.30;25.80;;;;;;5033440;28;20079;-64
2023/05/08 00:16:11;;;;;;;19.23;16.20;;;12.30;25.60;;;;;;5032800;28;20030;-64
2023/05/08 00:18:37;;;;;;;17.67;14.95;;;12.30;23.90;;;;;;5034204;28;20075;-64
2023/05/08 00:21:04;;;;;;;17.92;15.82;;;12.30;31.20;;;;;;5036449;28;20116;-64
2023/05/08 00:23:30;;;;;;;18.50;15.65;;;12.30;41.70;;;;;;5019664;28;20025;-64
2023/05/08 00:25:56;;;;;;;17.63;15.50;;;12.30;35.70;;;;;;5036929;28;20025;-64
2023/05/08 00:28:22;;;;;;;19.15;15.77;;;12.30;38.00;;;;;;5036579;28;20037;-64
2023/05/08 00:30:47;;;;;;;17.83;15.30;;;12.30;39.80;;;;;;5036896;28;20037;-64
2023/05/08 00:33:13;;;;;;;17.50;15.60;;;12.30;37.20;;;;;;5036531;28;20025;-64
2023/05/08 00:35:41;;;;;;;19.65;15.57;;;12.30;41.50;;;;;;5036240;28;20053;-64
2023/05/08 00:38:06;;;;;;;18.40;16.02;;;12.20;46.00;;;;;;5036429;28;20422;-64
2023/05/08 00:40:32;;;;;;;17.65;15.70;;;12.20;46.30;;;;;;5036299;28;20022;-64
2023/05/08 00:42:57;;;;;;;17.50;15.55;;;12.20;45.40;;;;;;5036369;28;20025;-64
2023/05/08 00:45:23;;;;;;;17.27;15.10;;;12.20;43.30;;;;;;5036825;28;20069;-63
2023/05/08 00:47:49;;;;;;;16.77;14.98;;;12.20;44.50;;;;;;5036429;28;20455;-64
2023/05/08 00:50:16;;;;;;;17.88;15.13;;;12.10;46.50;;;;;;5036228;28;20487;-64
2023/05/08 00:52:41;;;;;;;18.50;16.08;;;12.20;51.00;;;;;;5036685;28;20471;-63
2023/05/08 00:55:07;;;;;;;21.35;16.40;;;12.10;55.10;;;;;;5035927;28;20060;-63
2023/05/08 00:57:34;;;;;;;18.60;16.10;;;12.10;59.30;;;;;;5036008;28;20380;-64
2023/05/08 01:00:01;;;;;;;20.55;16.52;;;12.10;67.90;;;;;;5035340;28;20052;-64
2023/05/08 01:02:27;;;;;;;21.23;16.73;;;12.10;63.10;;;;;;5035423;28;20052;-64
2023/05/08 01:04:54;;;;;;;21.77;16.90;;;12.00;60.00;;;;;;5035942;28;20440;-63
2023/05/08 01:07:20;;;;;;;21.23;17.33;;;12.10;58.80;;;;;;5035670;28;20475;-64
2023/05/08 01:09:46;;;;;;;20.15;16.83;;;12.00;56.80;;;;;;5035398;28;20036;-64
2023/05/08 01:12:21;;;;;;;19.65;17.02;;;12.00;61.70;;;;;;5035065;28;20058;-63
2023/05/08 01:15:15;;;;;;;19.40;16.40;;;12.00;74.20;;;;;;5034940;28;20026;-63
2023/05/08 01:17:56;;;;;;;20.92;17.25;;;11.90;85.70;;;;;;5035389;28;20028;-64
2023/05/08 01:20:38;;;;;;;19.50;16.75;;;11.90;87.00;;;;;;5035426;28;20026;-63
2023/05/08 01:23:43;;;;;;;19.92;17.55;;;11.90;86.90;;;;;;5035783;28;20029;-63
2023/05/08 01:26:42;;;;;;;20.20;16.95;;;11.90;90.20;;;;;;5035355;28;20068;-63
2023/05/08 01:29:47;;;;;;;19.83;17.40;;;11.90;91.10;;;;;;5034867;28;20039;-63
2023/05/08 01:32:19;;;;;;;23.58;18.05;;;11.90;87.10;;;;;;5034770;28;20473;-63
2023/05/08 01:34:57;;;;;;;20.55;16.73;;;11.90;90.00;;;;;;5035432;28;20029;-64
2023/05/08 01:37:31;;;;;;;20.70;17.55;;;11.90;88.40;;;;;;5033708;28;20030;-63
2023/05/08 01:40:11;;;;;;;21.77;17.08;;;11.90;89.40;;;;;;5034179;28;20026;-63
2023/05/08 01:42:47;;;;;;;21.27;17.58;;;11.80;85.00;;;;;;5034957;28;20025;-64
2023/05/08 01:45:29;;;;;;;23.27;17.45;;;11.90;79.10;;;;;;5035416;28;20072;-63
2023/05/08 01:48:04;;;;;;;27.77;16.67;;;11.90;77.50;;;;;;5035091;28;20440;-63
2023/05/08 01:50:34;;;;;;;22.63;18.00;;;11.90;75.30;;;;;;5034849;28;20108;-64
2023/05/08 01:53:24;;;;;;;24.10;17.33;;;11.90;83.00;;;;;;5033524;28;20471;-63
2023/05/08 01:55:54;;;;;;;20.73;16.98;;;11.90;76.40;;;;;;5033858;28;20120;-63
2023/05/08 01:58:23;;;;;;;18.92;16.60;;;11.90;73.70;;;;;;5034827;28;20021;-63
2023/05/08 02:00:49;;;;;;;19.90;17.08;;;11.90;71.20;;;;;;5035185;28;20116;-63
2023/05/08 02:03:16;;;;;;;23.42;16.95;;;11.90;85.00;;;;;;5035116;28;20087;-63
2023/05/08 02:05:42;;;;;;;24.10;18.48;;;11.90;83.50;;;;;;5035110;28;20032;-64
2023/05/08 02:08:11;;;;;;;20.25;16.83;;;11.80;74.00;;;;;;5034503;28;20028;-63
2023/05/08 02:10:37;;;;;;;20.40;16.38;;;11.80;76.20;;;;;;5034745;28;20046;-64
2023/05/08 02:13:05;;;;;;;21.38;17.25;;;11.80;81.20;;;;;;5034898;28;20169;-63
2023/05/08 02:15:34;;;;;;;26.67;18.55;;;11.80;73.10;;;;;;5034343;28;20025;-63
2023/05/08 02:18:03;;;;;;;19.92;16.52;;;11.80;72.30;;;;;;5034918;28;20026;-63
2023/05/08 02:20:30;;;;;;;19.95;16.63;;;11.80;78.20;;;;;;5034616;28;20411;-64
2023/05/08 02:22:56;;;;;;;21.10;17.80;;;11.80;73.70;;;;;;5034761;28;20091;-63
2023/05/08 02:25:24;;;;;;;19.73;17.25;;;11.80;74.60;;;;;;5034474;28;20025;-63
2023/05/08 02:27:53;;;;;;;19.65;17.30;;;11.80;73.20;;;;;;5033286;28;20382;-64
2023/05/08 02:30:23;;;;;;;21.33;17.13;;;11.80;75.10;;;;;;5034694;28;20491;-63
2023/05/08 02:32:49;;;;;;;20.25;17.10;;;11.80;68.70;;;;;;5034333;28;20029;-63
2023/05/08 02:35:17;;;;;;;19.13;16.55;;;11.80;69.80;;;;;;5034594;28;20049;-63
2023/05/08 02:37:46;;;;;;;22.00;16.20;;;11.80;72.60;;;;;;5032879;28;20022;-63
2023/05/08 02:40:15;;;;;;;23.15;17.05;;;11.80;72.60;;;;;;5034411;28;20124;-63
2023/05/08 02:42:42;;;;;;;23.15;17.15;;;11.80;81.40;;;;;;5033214;28;20031;-63
2023/05/08 02:45:09;;;;;;;23.13;17.63;;;11.70;78.00;;;;;;5034627;28;20029;-63
2023/05/08 02:47:58;;;;;;;19.35;16.42;;;11.60;77.80;;;;;;5033853;28;20048;-63
2023/05/08 02:50:37;;;;;;;21.60;16.70;;;11.60;79.00;;;;;;5033476;28;20437;-63
2023/05/08 02:53:08;;;;;;;21.77;17.25;;;11.60;81.50;;;;;;5033224;28;20041;-63
2023/05/08 02:55:41;;;;;;;19.40;16.08;;;11.60;83.90;;;;;;5033422;28;20033;-63
2023/05/08 02:58:27;;;;;;;;;;;11.60;84.00;;;;;;5033151;28;20026;-63
2023/05/08 03:01:05;;;;;;;20.23;16.63;;;11.60;87.80;;;;;;5033978;28;19928;-63
2023/05/08 03:03:37;;;;;;;19.40;16.65;;;11.60;90.60;;;;;;5032467;28;20152;-63
2023/05/08 03:06:07;;;;;;;21.10;17.02;;;11.50;91.90;;;;;;5033464;28;20029;-63
2023/05/08 03:08:34;;;;;;;21.65;16.88;;;11.50;95.80;;;;;;5033646;28;20483;-63
2023/05/08 03:11:06;;;;;;;21.85;16.85;;;11.50;96.10;;;;;;5032167;28;20042;-63
2023/05/08 03:13:35;;;;;;;21.42;17.13;;;11.50;99.30;;;;;;5034083;28;20436;-64
2023/05/08 03:16:05;;;;;;;21.05;16.98;;;11.40;99.90;;;;;;5033835;28;20021;-63
2023/05/08 03:18:35;;;;;;;22.30;16.50;;;11.40;99.70;;;;;;5033542;28;20017;-64
2023/05/08 03:21:01;;;;;;;25.67;17.98;;;11.40;99.90;;;;;;5032570;28;20423;-63
2023/05/08 03:23:30;;;;;;;21.30;17.00;;;11.40;99.90;;;;;;5033420;28;20030;-63
2023/05/08 03:25:58;;;;;;;21.50;17.27;;;11.40;99.90;;;;;;5033846;28;20029;-63
2023/05/08 03:28:25;;;;;;;23.02;18.33;;;11.30;99.90;;;;;;5033487;28;20025;-63
2023/05/08 03:30:54;;;;;;;20.58;17.45;;;11.30;99.90;;;;;;5033354;28;20522;-63
2023/05/08 03:33:22;;;;;;;19.75;16.95;;;11.30;99.90;;;;;;5033407;28;20064;-63
2023/05/08 03:35:48;;;;;;;25.15;18.02;;;11.20;99.90;;;;;;5033366;28;20025;-66
2023/05/08 03:38:15;;;;;;;22.73;17.75;;;11.20;99.90;;;;;;5033634;28;20515;-63
2023/05/08 03:40:41;;;;;;;23.23;16.90;;;11.20;99.90;;;;;;5033526;28;20028;-64
2023/05/08 03:43:08;;;;;;;21.92;17.83;;;11.20;99.90;;;;;;5033358;28;20028;-63
2023/05/08 03:45:37;;;;;;;20.23;17.50;;;11.20;99.90;;;;;;5033546;28;20037;-63
2023/05/08 03:48:05;;;;;;;23.15;17.70;;;11.10;99.90;;;;;;5032125;28;20025;-63
2023/05/08 03:50:34;;;;;;;25.20;17.20;;;11.20;99.90;;;;;;5033751;28;20030;-63
2023/05/08 03:53:00;;;;;;;23.02;17.45;;;11.10;99.90;;;;;;5032056;28;20038;-63
2023/05/08 03:55:25;;;;;;;24.30;18.10;;;11.10;99.90;;;;;;5037491;28;20037;-63
2023/05/08 03:58:00;;;;;;;23.45;18.38;;;11.10;99.90;;;;;;5037548;28;20076;-64
2023/05/08 04:00:40;;;;;;;24.83;18.35;;;11.10;99.90;;;;;;5037559;28;20025;-64
2023/05/08 04:03:21;;;;;;;23.38;18.10;;;11.10;99.90;;;;;;5035902;28;20056;-63
2023/05/08 04:05:59;;;;;;;24.10;17.52;;;11.10;99.90;;;;;;5036853;28;20033;-63
2023/05/08 04:08:29;;;;;;;22.27;17.90;;;11.10;99.90;;;;;;5036762;28;20039;-63
2023/05/08 04:11:08;;;;;;;23.17;17.92;;;11.00;99.90;;;;;;5035416;28;20141;-63
2023/05/08 04:13:40;;;;;;;21.67;17.48;;;11.00;99.90;;;;;;5036434;28;20029;-63
2023/05/08 04:16:14;;;;;;;22.30;18.40;;;11.00;99.90;;;;;;5019390;28;20029;-63
2023/05/08 04:18:44;;;;;;;22.33;18.02;;;11.10;99.90;;;;;;5037035;28;20109;-63
2023/05/08 04:21:14;;;;;;;24.73;18.45;;;11.10;99.90;;;;;;5037180;28;20025;-63
2023/05/08 04:23:42;;;;;;;23.02;17.85;;;11.10;99.90;;;;;;5037196;28;20033;-63
2023/05/08 04:26:09;;;;;;;24.63;17.85;;;11.20;99.90;;;;;;5036559;28;20391;-63
2023/05/08 04:28:35;;;;;;;22.23;17.00;;;11.20;99.90;;;;;;5037054;28;20063;-63
2023/05/08 04:31:02;;;;;;;23.13;17.30;;;11.30;99.90;;;;;;5036840;28;20075;-63
2023/05/08 04:33:29;;;;;;;20.92;16.95;;;11.30;99.90;;;;;;5036947;28;20116;-63
2023/05/08 04:35:55;;;;;;;23.38;18.10;;;11.40;99.90;;;;;;5036377;28;20483;-63
2023/05/08 04:38:20;;;;;;;23.15;17.65;;;11.40;99.90;;;;;;5036825;28;20029;-63
2023/05/08 04:40:46;;;;;;;20.38;16.45;;;11.40;99.90;;;;;;5036649;28;20387;-63
2023/05/08 04:43:12;;;;;;;22.30;17.45;;;11.50;99.90;;;;;;5036375;28;20085;-64
2023/05/08 04:45:37;;;;;;;24.35;17.23;;;11.60;99.90;;;;;;5036239;28;20029;-63
2023/05/08 04:48:03;;;;;;;24.05;17.63;;;11.70;99.90;;;;;;5036167;28;20033;-63
2023/05/08 04:50:29;;;;;;;21.02;16.20;;;11.80;99.90;;;;;;5035896;28;20036;-65
2023/05/08 04:52:54;;;;;;;18.48;16.48;;;12.00;99.90;;;;;;5036038;28;20025;-64
2023/05/08 04:55:20;;;;;;;19.75;15.65;;;12.10;95.60;;;;;;5036053;28;20026;-63
2023/05/08 04:57:46;;;;;;;19.25;16.25;;;12.30;92.50;;;;;;5035894;28;20387;-63
2023/05/08 05:00:12;;;;;;;19.85;15.82;;;12.40;89.40;;;;;;5036198;28;20076;-63
2023/05/08 05:02:37;;;;;;;22.73;15.65;;;12.60;89.00;;;;;;5036405;28;20044;-63
2023/05/08 05:05:03;;;;;;;17.42;15.60;;;12.80;65.50;;;;;;5036007;28;20029;-63
2023/05/08 05:07:31;;;;;;;18.30;14.88;;;12.90;49.00;;;;;;5035738;28;20383;-64
2023/05/08 05:09:59;;;;;;;18.60;14.68;;;13.10;44.10;;;;;;5035760;28;20484;-63
2023/05/08 05:12:25;;;;;;;18.35;14.85;;;13.20;28.90;;;;;;5035194;28;20045;-64
2023/05/08 05:14:50;;;;;;;17.90;14.95;;;13.40;27.00;;;;;;5035809;28;20028;-63
2023/05/08 05:17:16;;;;;;;15.32;13.35;;;13.50;10.40;;;;;;5035790;28;20105;-64
2023/05/08 05:19:41;;;;;;;16.98;14.50;;;13.60;8.50;;;;;;5035481;28;20053;-63
2023/05/08 05:22:07;;;;;;;17.30;14.13;;;13.70;8.50;;;;;;5035955;28;20033;-63
2023/05/08 05:24:34;;;;;;;16.55;14.07;;;13.70;11.80;;;;;;5035422;28;20057;-64
2023/05/08 05:27:01;;;;;;;16.98;13.63;;;13.90;1.10;;;;;;5035358;28;20049;-64
2023/05/08 05:29:27;;;;;;;18.85;14.25;;;14.00;1.00;;;;;;5035271;28;20033;-64
2023/05/08 05:31:53;;;;;;;15.60;13.70;;;14.10;1.00;;;;;;5035187;28;20091;-64
2023/05/08 05:34:18;;;;;;;15.15;13.60;;;14.40;1.00;;;;;;5035357;28;20472;-63
2023/05/08 05:36:44;;;;;;;14.35;12.55;;;14.70;1.00;;;;;;5035065;28;20375;-64
2023/05/08 05:39:09;;;;;;;14.00;11.82;;;15.30;1.00;;;;;;5035241;28;20025;-64
2023/05/08 05:41:35;;;;;;;14.63;11.88;;;16.00;1.00;;;;;;5035106;28;20471;-64
2023/05/08 05:44:01;;;;;;;17.63;13.30;;;16.40;99.90;;;;;;5035072;28;20058;-64
2023/05/08 05:46:31;;;;;;;13.75;11.93;;;15.80;99.90;;;;;;5035136;28;20079;-64
2023/05/08 05:48:57;;;;;;;16.17;12.32;;;15.70;99.90;;;;;;5035000;28;20033;-64
2023/05/08 05:51:23;;;;;;;14.38;12.95;;;15.70;99.90;;;;;;5034796;28;20038;-64
2023/05/08 05:53:48;;;;;;;14.25;12.90;;;15.50;99.90;;;;;;5034527;28;20031;-63
2023/05/08 05:56:14;;;;;;;16.20;13.23;;;15.60;99.90;;;;;;5034821;28;20025;-64
2023/05/08 05:58:43;;;;;;;14.65;12.60;;;15.60;99.90;;;;;;5033033;28;20017;-64
2023/05/08 06:01:09;;;;;;;15.23;12.65;;;16.20;99.90;;;;;;5034803;28;20029;-64
2023/05/08 06:03:35;;;;;;;13.20;11.80;;;17.00;99.90;;;;;;5034459;28;20017;-64
2023/05/08 06:06:04;;;;;;;12.98;11.63;;;17.10;1.00;;;;;;5034785;28;20032;-63
2023/05/08 06:08:30;;;;;;;15.07;11.77;;;16.60;99.90;;;;;;5034345;28;20025;-64
2023/05/08 06:10:55;;;;;;;15.25;12.55;;;15.90;1.00;;;;;;5032678;28;20422;-64
2023/05/08 06:13:21;;;;;;;15.13;12.68;;;15.60;99.90;;;;;;5034432;28;20029;-63
2023/05/08 06:15:48;;;;;;;14.80;12.73;;;15.40;99.90;;;;;;5033789;28;20383;-64
2023/05/08 06:18:13;;;;;;;15.65;14.05;;;15.20;99.90;;;;;;5034543;28;20398;-65
2023/05/08 06:20:39;;;;;;;15.32;13.73;;;15.10;1.00;;;;;;5034322;28;20025;-64
2023/05/08 06:23:05;;;;;;;17.30;13.52;;;15.00;1.00;;;;;;5034538;28;20036;-64
2023/05/08 06:25:30;;;;;;;16.05;13.15;;;14.90;1.00;;;;;;5032161;28;20056;-63
2023/05/08 06:27:56;;;;;;;15.57;13.98;;;14.90;1.00;;;;;;5036219;28;20071;-65
2023/05/08 06:30:22;;;;;;;16.02;14.32;;;14.70;1.00;;;;;;5028394;28;20030;-64
2023/05/08 06:32:47;;;;;;;19.05;15.07;;;14.60;1.00;;;;;;5028109;28;20607;-64
2023/05/08 06:35:17;;;;;;;18.15;15.45;;;14.60;1.00;;;;;;5027530;28;20634;-65
2023/05/08 06:37:43;;;;;;;18.92;16.08;;;14.60;1.00;;;;;;5033420;28;20029;-63
2023/05/08 06:40:10;;;;;;;22.85;16.23;;;14.60;1.00;;;;;;5032379;28;20111;-64
2023/05/08 06:42:35;;;;;;;23.73;16.58;;;14.70;1.00;;;;;;5030405;28;20033;-64
2023/05/08 06:45:02;;;;;;;19.70;17.13;;;14.80;1.00;;;;;;5038097;28;20026;-64
2023/05/08 06:47:27;;;;;;;19.02;17.10;;;14.80;1.00;;;;;;5021078;28;20033;-65
2023/05/08 06:49:53;;;;;;;21.42;17.60;;;14.80;1.00;;;;;;5019521;28;20083;-64
2023/05/08 06:52:19;;;;;;;20.13;17.38;;;14.80;1.00;;;;;;5036361;28;20025;-64
2023/05/08 06:54:45;;;;;;;18.90;16.90;;;14.90;1.00;;;;;;5028889;28;20021;-64
2023/05/08 06:57:13;;;;;;;19.58;15.77;;;14.90;1.00;;;;;;5019833;28;20021;-63
2023/05/08 06:59:39;;;;;;;18.25;15.02;;;14.90;1.00;;;;;;5022483;28;20025;-64
2023/05/08 07:02:04;;;;;;;20.02;15.70;;;14.90;1.00;;;;;;5026074;28;20052;-66
2023/05/08 07:04:30;;;;;;;18.05;15.52;;;15.00;1.00;;;;;;5024463;28;20030;-63
2023/05/08 07:06:56;;;;;;;18.92;15.35;;;14.90;1.00;;;;;;5022618;28;20036;-63
2023/05/08 07:09:21;;;;;;;18.58;15.65;;;14.90;1.00;;;;;;5028003;28;20457;-63
2023/05/08 07:11:47;;;;;;;18.38;15.82;;;14.90;1.00;;;;;;5027960;28;20124;-63
2023/05/08 07:14:12;;;;;;;17.92;15.25;;;14.90;1.00;;;;;;5030396;28;20060;-64
2023/05/08 07:16:38;;;;;;;18.90;15.63;;;15.00;1.00;;;;;;5030874;28;20432;-64
2023/05/08 07:19:04;;;;;;;18.30;16.40;;;15.00;1.00;;;;;;5024859;28;21288;-65
2023/05/08 07:21:30;;;;;;;18.80;15.40;;;15.10;1.00;;;;;;5024359;28;20025;-63
2023/05/08 07:23:55;;;;;;;19.65;15.77;;;15.30;1.00;;;;;;5031433;28;20030;-63
2023/05/08 07:26:21;;;;;;;18.23;15.13;;;15.30;1.00;;;;;;5030239;28;20041;-63
2023/05/08 07:28:47;;;;;;;18.27;16.17;;;15.40;1.00;;;;;;5026416;28;20034;-64
2023/05/08 07:31:13;;;;;;;19.90;16.77;;;15.40;1.00;;;;;;5025247;28;20034;-64
2023/05/08 07:33:39;;;;;;;18.70;15.93;;;15.30;1.00;;;;;;5039105;28;20041;-64
2023/05/08 07:36:05;;;;;;;18.40;15.35;;;15.40;1.00;;;;;;5030410;28;20515;-64
2023/05/08 07:38:31;;;;;;;19.70;14.82;;;15.60;1.00;;;;;;5031496;28;20105;-64
2023/05/08 07:40:58;;;;;;;17.17;14.98;;;15.90;1.00;;;;;;5034197;28;20482;-64
2023/05/08 07:43:24;;;;;;;19.08;14.30;;;16.20;1.00;;;;;;5017809;28;20084;-63
2023/05/08 07:45:49;;;;;;;17.52;15.25;;;16.30;1.00;;;;;;5027588;28;20017;-64
2023/05/08 07:48:15;;;;;;;17.60;14.73;;;16.20;1.00;;;;;;5032967;28;20033;-63
2023/05/08 07:50:41;;;;;;;16.45;14.70;;;16.30;1.00;;;;;;5025736;28;20025;-63
2023/05/08 07:53:06;;;;;;;19.70;15.48;;;16.30;1.00;;;;;;5033968;28;20033;-63
2023/05/08 07:55:32;;;;;;;19.75;14.18;;;16.40;1.00;;;;;;5036340;28;20021;-63
2023/05/08 07:57:58;;;;;;;17.30;14.25;;;16.50;1.00;;;;;;5027758;28;20032;-63
2023/05/08 08:00:26;;;;;;;17.08;14.27;;;16.70;1.00;;;;;;5029113;28;20034;-63
2023/05/08 08:02:51;;;;;;;18.98;13.98;;;16.70;1.00;;;;;;5030096;28;20040;-64
2023/05/08 08:05:17;;;;;;;15.63;13.88;;;16.70;1.00;;;;;;5023814;28;20045;-64
2023/05/08 08:07:43;;;;;;;20.15;14.48;;;16.90;1.00;;;;;;5026144;28;20045;-65
2023/05/08 08:10:09;;;;;;;15.55;13.07;;;17.00;1.00;;;;;;5023331;28;20495;-64
2023/05/08 08:12:35;;;;;;;15.45;13.80;;;17.30;1.00;;;;;;5023808;28;20087;-64
2023/05/08 08:15:00;;;;;;;15.95;13.02;;;17.50;99.90;;;;;;5031727;28;20025;-64
2023/05/08 08:17:26;;;;;;;16.75;14.15;;;17.70;99.90;;;;;;5028828;28;20026;-64
2023/05/08 08:19:52;;;;;;;16.67;13.15;;;17.80;99.90;;;;;;5026875;28;20039;-64
2023/05/08 08:22:18;;;;;;;16.02;13.10;;;17.80;99.90;;;;;;5042695;28;20029;-64
2023/05/08 08:24:43;;;;;;;15.85;13.07;;;18.00;99.90;;;;;;5032442;28;20033;-64
2023/05/08 08:27:09;;;;;;;14.93;11.95;;;18.00;99.90;;;;;;5025449;28;20034;-66
2023/05/08 08:29:35;;;;;;;15.35;13.35;;;18.10;99.90;;;;;;5029180;28;20032;-68
2023/05/08 08:32:02;;;;;;;14.18;12.77;;;18.20;99.90;;;;;;5025857;28;20025;-66
2023/05/08 08:34:27;;;;;;;14.48;13.00;;;18.00;99.90;;;;;;5021069;28;20459;-65
2023/05/08 08:36:53;;;;;;;14.13;12.52;;;18.10;99.90;;;;;;5025139;28;20060;-64
2023/05/08 08:39:20;;;;;;;13.18;11.77;;;18.10;99.90;;;;;;5019207;28;20021;-65
2023/05/08 08:41:45;;;;;;;13.65;12.32;;;18.30;99.90;;;;;;5023140;28;20037;-67
2023/05/08 08:44:11;;;;;;;13.40;12.10;;;18.30;99.90;;;;;;5023030;28;20036;-64
2023/05/08 08:46:42;;;;;;;15.15;12.57;;;18.00;99.90;;;;;;5022141;28;20403;-64
2023/05/08 08:49:12;;;;;;;14.15;12.65;;;18.00;99.90;;;;;;5025734;28;20502;-64
2023/05/08 08:51:50;;;;;;;13.55;12.15;;;18.00;99.90;;;;;;5027756;28;20079;-65
2023/05/08 08:54:20;;;;;;;13.77;12.38;;;17.80;99.90;;;;;;5020076;28;20061;-64
2023/05/08 08:56:51;;;;;;;17.33;13.00;;;17.80;99.90;;;;;;5034668;28;20132;-64
2023/05/08 08:59:17;;;;;;;17.40;13.05;;;17.90;99.90;;;;;;5024324;28;20021;-65
2023/05/08 09:01:46;;;;;;;16.17;12.85;;;18.00;99.90;;;;;;5048986;28;20029;-65
2023/05/08 09:04:15;;;;;;;14.43;12.90;;;18.10;99.90;;;;;;5027532;28;20080;-64
2023/05/08 09:06:41;;;;;;;14.13;12.18;;;18.00;99.90;;;;;;5030190;28;20032;-66
2023/05/08 09:09:07;;;;;;;14.25;12.77;;;18.20;99.90;;;;;;5032646;28;20029;-64
2023/05/08 09:11:35;;;;;;;13.55;11.65;;;18.30;99.90;;;;;;5032095;28;20042;-65
2023/05/08 09:14:00;;;;;;;13.02;11.63;;;18.40;99.90;;;;;;5022443;28;20076;-64
2023/05/08 09:16:27;;;;;;;13.85;12.20;;;18.50;99.90;;;;;;5030838;28;20053;-64
2023/05/08 09:18:52;;;;;;;13.75;12.45;;;18.70;99.90;;;;;;5025494;28;20498;-65
2023/05/08 09:21:19;;;;;;;15.32;13.35;;;18.60;60.40;;;;;;5027077;28;20029;-65
2023/05/08 09:24:02;;;;;;;15.70;12.18;;;18.50;99.90;;;;;;5030781;28;20034;-65
2023/05/08 09:29:13;;;;;;;12.18;10.75;;;18.70;49.80;;;;;;5127000;27;20487;-66
2023/05/08 09:31:43;;;;;;;10.98;9.77;;;19.20;1.00;;;;;;5108281;28;20057;-65
2023/05/08 09:34:30;;;;;;;12.65;10.60;;;19.30;99.90;;;;;;5105634;28;20388;-66
2023/05/08 09:37:11;;;;;;;10.77;9.73;;;19.50;1.00;;;;;;5107243;28;20035;-65
2023/05/08 09:39:40;;;;;;;11.68;9.98;;;19.50;1.00;;;;;;5103225;28;20699;-65
2023/05/08 09:42:06;;;;;;;13.82;10.23;;;19.70;99.90;;;;;;5105185;28;20093;-66
2023/05/08 09:44:52;;;;;;;12.23;11.02;;;19.50;99.90;;;;;;5102260;28;20043;-67
2023/05/08 09:47:20;;;;;;;11.60;10.23;;;19.80;1.00;;;;;;5086593;28;20119;-65
2023/05/08 09:50:07;;;;;;;11.38;9.32;;;19.90;99.90;;;;;;5079370;28;20033;-66
2023/05/08 09:52:34;;;;;;;10.45;8.13;;;20.40;99.90;;;;;;5081502;28;20075;-65
2023/05/08 09:55:06;;;;;;;9.45;8.43;;;20.50;99.90;;;;;;5088337;28;20074;-67
2023/05/08 09:57:37;;;;;;;9.20;8.32;;;20.50;99.90;;;;;;5083090;28;20091;-65
2023/05/08 10:00:11;;;;;;;9.70;8.80;;;20.30;90.40;;;;;;5084440;28;20422;-68
2023/05/08 10:02:39;;;;;;;8.80;7.30;;;20.50;99.90;;;;;;5087511;28;20028;-65
2023/05/08 10:05:28;;;;;;;8.48;7.57;;;20.40;99.90;;;;;;5087453;28;20086;-66
2023/05/08 10:07:54;;;;;;;8.52;7.43;;;20.30;1.00;;;;;;5085382;28;20033;-67
2023/05/08 10:10:29;;;;;;;6.78;6.18;;;20.20;99.90;;;;;;5103653;28;20059;-66
2023/05/08 10:12:56;;;;;;;8.05;6.90;;;20.50;68.90;;;;;;5084345;28;20448;-67
2023/05/08 10:15:24;;;;;;;9.82;7.00;;;21.10;73.60;;;;;;5085678;28;20029;-66
2023/05/08 10:17:56;;;;;;;7.75;6.95;;;21.20;42.00;;;;;;5087132;28;20448;-66
2023/05/08 10:20:27;;;;;;;7.80;7.10;;;21.20;19.80;;;;;;5088365;28;20024;-65
2023/05/08 10:22:56;;;;;;;8.75;7.95;;;21.30;1.00;;;;;;5086398;28;20024;-66
2023/05/08 10:25:22;;;;;;;10.82;9.43;;;21.00;1.00;;;;;;5069358;28;20036;-64
2023/05/08 10:28:13;;;;;;;9.88;8.88;;;20.90;67.40;;;;;;5084315;28;20051;-65
2023/05/08 10:30:43;;;;;;;11.18;9.95;;;21.40;99.90;;;;;;5077692;28;20501;-65
2023/05/08 10:33:11;;;;;;;10.38;9.23;;;21.70;29.50;;;;;;5081976;28;20032;-66
2023/05/08 10:35:36;;;;;;;9.77;8.73;;;21.70;1.00;;;;;;5079095;28;20024;-65
2023/05/08 10:38:03;;;;;;;10.43;8.60;;;21.80;99.90;;;;;;5083914;28;20052;-65
2023/05/08 10:40:29;;;;;;;12.57;8.63;;;22.00;1.00;;;;;;5056516;28;20074;-65
2023/05/08 10:42:56;;;;;;;8.65;7.57;;;22.10;99.90;;;;;;5070906;28;20394;-66
2023/05/08 10:45:23;;;;;;;8.60;7.70;;;22.30;99.90;;;;;;5070301;28;20035;-67
2023/05/08 10:48:28;;;;;;;10.52;8.15;;;22.30;99.90;;;;;;5072049;28;20060;-67
2023/05/08 10:51:03;;;;;;;7.80;7.00;;;22.20;1.00;;;;;;5073680;28;20020;-64
2023/05/08 10:53:38;;;;;;;8.80;8.00;;;22.30;1.00;;;;;;5069199;28;20025;-65
2023/05/08 10:56:04;;;;;;;10.68;7.13;;;22.60;1.00;;;;;;5056801;28;20360;-66
2023/05/08 10:58:32;;;;;;;8.20;7.00;;;22.30;26.80;;;;;;5070026;28;20393;-66
2023/05/08 11:01:03;;;;;;;6.88;6.15;;;22.20;1.00;;;;;;5054161;28;20439;-65
2023/05/08 11:03:30;;;;;;;8.32;7.20;;;22.20;99.90;;;;;;5066707;28;20020;-65
2023/05/08 11:05:57;;;;;;;7.95;7.00;;;22.30;1.00;;;;;;5058406;28;20028;-63
2023/05/08 11:08:26;;;;;;;9.25;7.40;;;22.30;99.90;;;;;;5077821;28;20062;-64
2023/05/08 11:11:05;;;;;;;7.85;7.05;;;22.10;1.00;;;;;;5068497;28;20036;-65
2023/05/08 11:13:35;;;;;;;7.40;6.70;;;22.10;1.00;;;;;;5071427;28;20063;-66
2023/05/08 11:16:02;;;;;;;8.23;7.03;;;22.00;1.00;;;;;;5072670;28;20056;-64
2023/05/08 11:18:28;;;;;;;7.57;6.88;;;21.80;1.00;;;;;;5052781;28;20275;-65
2023/05/08 11:21:04;;;;;;;7.43;6.72;;;22.10;99.90;;;;;;5062425;28;20032;-66
2023/05/08 11:23:32;;;;;;;7.97;7.18;;;22.10;1.00;;;;;;5067486;28;20556;-65
2023/05/08 11:26:05;;;;;;;7.70;6.90;;;22.10;99.90;;;;;;5065307;28;20131;-64
2023/05/08 11:28:36;;;;;;;7.25;6.55;;;22.30;99.90;;;;;;5067816;28;20036;-64
2023/05/08 11:31:03;;;;;;;8.20;7.43;;;22.30;1.00;;;;;;5055056;28;20542;-67
2023/05/08 11:33:32;;;;;;;7.55;6.85;;;22.40;1.00;;;;;;5069880;28;20052;-63
2023/05/08 11:36:10;;;;;;;8.02;7.22;;;22.30;1.00;;;;;;5051013;28;20638;-64
2023/05/08 11:38:37;;;;;;;8.80;7.90;;;22.20;99.90;;;;;;5053721;28;20159;-66
2023/05/08 11:41:26;;;;;;;10.20;8.43;;;22.10;1.00;;;;;;5070888;28;20024;-63
2023/05/08 11:44:16;;;;;;;8.65;7.75;;;21.90;1.00;;;;;;5071715;28;20421;-64
2023/05/08 11:46:57;;;;;;;10.00;9.00;;;21.80;1.00;;;;;;5069179;28;20107;-64
2023/05/08 11:49:25;;;;;;;10.55;7.88;;;21.80;99.90;;;;;;5070692;28;20506;-64
2023/05/08 11:51:54;;;;;;;9.07;7.95;;;21.90;99.90;;;;;;5064051;28;20469;-65
2023/05/08 11:54:21;;;;;;;9.38;7.60;;;21.80;99.90;;;;;;5068212;28;20021;-65
2023/05/08 11:56:47;;;;;;;9.95;9.00;;;21.80;99.90;;;;;;5071777;28;20028;-64
2023/05/08 11:59:13;;;;;;;9.80;8.80;;;21.60;99.90;;;;;;5067231;28;20509;-64
2023/05/08 12:01:39;;;;;;;10.63;9.68;;;21.40;99.90;;;;;;5055698;28;20033;-64
2023/05/08 12:04:08;;;;;;;9.23;8.32;;;21.30;1.00;;;;;;5073226;28;20024;-64
2023/05/08 12:06:37;;;;;;;9.65;7.90;;;21.20;99.90;;;;;;5070234;28;20123;-65
2023/05/08 12:09:08;;;;;;;9.90;8.90;;;21.10;10.30;;;;;;5071056;28;20036;-65
2023/05/08 12:11:34;;;;;;;10.23;9.07;;;21.00;99.90;;;;;;5073136;28;20021;-64
2023/05/08 12:14:00;;;;;;;10.23;9.32;;;20.80;99.90;;;;;;5071852;28;20028;-63
2023/05/08 12:16:26;;;;;;;10.63;9.52;;;20.80;99.90;;;;;;5070464;28;20055;-62
2023/05/08 12:18:52;;;;;;;16.45;14.02;;;20.80;1.00;;;;;;5069027;28;20102;-63
2023/05/08 12:21:20;;;;;;;8.93;8.07;;;20.70;1.00;;;;;;5070469;28;20088;-67
2023/05/08 12:23:46;;;;;;;10.70;9.50;;;20.70;1.00;;;;;;5067700;28;20512;-67
2023/05/08 12:26:12;;;;;;;9.85;8.85;;;20.60;1.00;;;;;;5069490;28;20035;-67
2023/05/08 12:28:39;;;;;;;10.27;9.27;;;20.50;99.90;;;;;;5072488;28;20045;-65
2023/05/08 12:31:05;;;;;;;9.23;7.75;;;20.40;99.90;;;;;;5076437;28;20497;-67
2023/05/08 12:33:32;;;;;;;8.57;7.38;;;20.50;1.00;;;;;;5069877;28;20024;-70
2023/05/08 12:35:58;;;;;;;9.13;8.10;;;20.60;99.90;;;;;;5068069;28;20039;-66
2023/05/08 12:38:26;;;;;;;10.02;7.78;;;20.60;1.00;;;;;;5068223;28;20036;-67
2023/05/08 12:40:54;;;;;;;9.93;9.02;;;20.60;99.90;;;;;;5072262;28;20031;-66
2023/05/08 12:43:20;;;;;;;9.18;8.27;;;20.50;1.00;;;;;;5070960;28;20025;-67
2023/05/08 12:45:46;;;;;;;10.50;9.18;;;20.50;99.90;;;;;;5071903;28;20075;-66